createdAt,value
2023-01-08T00:00:16.678Z,30.43
2023-01-08T00:02:52.809Z,29.08
2023-01-08T00:05:21.688Z,30.90
2023-01-08T00:07:57.115Z,32.80
2023-01-08T00:10:27.381Z,23.70
2023-01-08T00:13:01.452Z,32.50
2023-01-08T00:15:31.256Z,23.77
2023-01-08T00:18:06.693Z,32.72
2023-01-08T00:20:44.622Z,27.45
2023-01-08T00:23:23.857Z,32.10
2023-01-08T00:25:59.048Z,33.25
2023-01-08T00:28:33.763Z,26.15
2023-01-08T00:31:15.380Z,24.92
2023-01-08T00:33:42.528Z,30.75
2023-01-08T00:36:27.609Z,23.25
2023-01-08T00:39:10.002Z,26.00
2023-01-08T00:41:36.853Z,31.60
2023-01-08T00:44:08.225Z,32.30
2023-01-08T00:46:40.655Z,32.08
2023-01-08T00:49:10.381Z,32.03
2023-01-08T00:51:45.716Z,31.70
2023-01-08T00:54:29.384Z,32.25
2023-01-08T00:56:56.337Z,25.25
2023-01-08T00:59:23.348Z,24.20
2023-01-08T01:02:04.857Z,30.73
2023-01-08T01:04:41.158Z,32.33
2023-01-08T01:07:42.348Z,33.03
2023-01-08T01:10:36.314Z,32.08
2023-01-08T01:13:03.104Z,33.17
2023-01-08T01:15:30.159Z,32.92
2023-01-08T01:18:14.880Z,32.97
2023-01-08T01:20:42.389Z,29.77
2023-01-08T01:23:15.228Z,33.75
2023-01-08T01:25:48.721Z,26.25
2023-01-08T01:28:18.995Z,32.00
2023-01-08T01:30:59.722Z,33.95
2023-01-08T01:33:27.011Z,25.13
2023-01-08T01:36:04.954Z,32.20
2023-01-08T01:38:32.190Z,32.00
2023-01-08T01:41:02.611Z,25.65
2023-01-08T01:43:47.971Z,22.67
2023-01-08T01:46:37.088Z,32.63
2023-01-08T01:49:15.918Z,24.88
2023-01-08T01:51:51.293Z,24.25
2023-01-08T01:54:26.213Z,31.23
2023-01-08T01:57:02.179Z,24.55
2023-01-08T01:59:29.380Z,29.25
2023-01-08T02:02:01.684Z,24.30
2023-01-08T02:07:15.077Z,30.60
2023-01-08T02:09:51.124Z,31.13
2023-01-08T02:12:39.364Z,30.45
2023-01-08T02:15:43.700Z,30.65
2023-01-08T02:18:16.983Z,25.33
2023-01-08T02:21:10.821Z,24.27
2023-01-08T02:23:47.239Z,25.63
2023-01-08T02:26:22.556Z,27.80
2023-01-08T02:29:11.219Z,27.23
2023-01-08T02:31:44.190Z,27.48
2023-01-08T02:34:12.859Z,29.00
2023-01-08T02:37:00.631Z,26.15
2023-01-08T02:40:07.409Z,28.98
2023-01-08T02:42:54.005Z,29.55
2023-01-08T02:45:46.609Z,24.00
2023-01-08T02:48:39.505Z,24.63
2023-01-08T02:51:26.012Z,27.83
2023-01-08T02:53:59.932Z,26.95
2023-01-08T02:56:47.236Z,29.23
2023-01-08T02:59:21.354Z,23.17
2023-01-08T03:01:51.505Z,23.10
2023-01-08T03:04:23.163Z,21.60
2023-01-08T03:06:51.051Z,26.85
2023-01-08T03:09:27.141Z,27.90
2023-01-08T03:12:03.802Z,22.17
2023-01-08T03:15:09.691Z,26.52
2023-01-08T03:17:43.584Z,25.30
2023-01-08T03:20:24.914Z,24.15
2023-01-08T03:22:55.609Z,26.92
2023-01-08T03:25:29.048Z,22.42
2023-01-08T03:28:04.556Z,22.70
2023-01-08T03:30:44.592Z,22.15
2023-01-08T03:33:21.728Z,26.42
2023-01-08T03:35:54.516Z,27.25
2023-01-08T03:38:28.954Z,27.83
2023-01-08T03:41:01.252Z,28.42
2023-01-08T03:43:29.415Z,23.02
2023-01-08T03:46:02.553Z,20.92
2023-01-08T03:48:32.779Z,22.05
2023-01-08T03:51:12.932Z,20.48
2023-01-08T03:53:51.353Z,25.67
2023-01-08T03:56:20.086Z,28.10
2023-01-08T03:58:49.808Z,29.15
2023-01-08T04:01:16.665Z,30.02
2023-01-08T04:03:43.615Z,30.88
2023-01-08T04:06:25.440Z,28.83
2023-01-08T04:08:56.114Z,28.90
2023-01-08T04:11:24.837Z,29.38
2023-01-08T04:13:54.723Z,22.45
2023-01-08T04:16:27.351Z,23.02
2023-01-08T04:19:01.508Z,21.55
2023-01-08T04:21:33.994Z,23.30
2023-01-08T04:24:01.670Z,21.27
2023-01-08T04:26:28.731Z,25.90
2023-01-08T04:29:14.397Z,22.90
2023-01-08T04:31:48.027Z,25.73
2023-01-08T04:34:23.593Z,22.40
2023-01-08T04:36:50.351Z,23.70
2023-01-08T04:39:17.042Z,25.98
2023-01-08T04:41:51.535Z,21.10
2023-01-08T04:44:18.278Z,26.67
2023-01-08T04:46:44.984Z,27.35
2023-01-08T04:49:14.949Z,28.75
2023-01-08T04:51:44.566Z,27.10
2023-01-08T04:54:12.424Z,25.02
2023-01-08T04:56:39.305Z,28.35
2023-01-08T04:59:06.195Z,29.25
2023-01-08T05:01:34.882Z,22.88
2023-01-08T05:04:07.742Z,29.55
2023-01-08T05:06:45.219Z,31.05
2023-01-08T05:09:16.330Z,31.33
2023-01-08T05:11:43.502Z,32.63
2023-01-08T05:14:10.276Z,30.65
2023-01-08T05:16:37.092Z,31.05
2023-01-08T05:19:07.867Z,31.45
2023-01-08T05:21:40.582Z,31.05
2023-01-08T05:24:07.706Z,30.95
2023-01-08T05:26:38.661Z,33.70
2023-01-08T05:29:05.485Z,31.60
2023-01-08T05:31:33.653Z,34.08
2023-01-08T05:34:03.340Z,33.03
2023-01-08T05:36:33.045Z,31.40
2023-01-08T05:39:02.898Z,31.98
2023-01-08T05:41:38.919Z,33.10
2023-01-08T05:44:08.886Z,34.22
2023-01-08T05:46:35.656Z,30.90
2023-01-08T05:49:05.077Z,35.80
2023-01-08T05:51:43.886Z,34.95
2023-01-08T05:54:23.807Z,35.35
2023-01-08T05:56:56.777Z,36.20
2023-01-08T05:59:24.973Z,34.78
2023-01-08T06:01:51.791Z,35.22
2023-01-08T06:04:21.328Z,34.15
2023-01-08T06:06:51.072Z,35.65
2023-01-08T06:09:20.762Z,36.35
2023-01-08T06:11:47.554Z,37.22
2023-01-08T06:14:16.050Z,27.10
2023-01-08T06:16:49.403Z,26.25
2023-01-08T06:19:16.197Z,33.42
2023-01-08T06:21:47.862Z,23.75
2023-01-08T06:26:57.902Z,27.67
2023-01-08T06:29:24.753Z,29.88
2023-01-08T06:31:53.723Z,22.13
2023-01-08T06:34:20.713Z,32.63
2023-01-08T06:36:48.453Z,24.30
2023-01-08T06:39:15.341Z,31.77
2023-01-08T06:42:10.456Z,23.95
2023-01-08T06:44:41.576Z,23.45
2023-01-08T06:47:12.161Z,23.73
2023-01-08T06:49:46.540Z,24.05
2023-01-08T06:52:13.429Z,25.25
2023-01-08T06:54:40.125Z,24.63
2023-01-08T06:57:14.377Z,26.88
2023-01-08T06:59:44.439Z,23.40
2023-01-08T07:02:22.895Z,29.95
2023-01-08T07:04:56.677Z,31.02
2023-01-08T07:07:23.523Z,33.00
2023-01-08T07:09:54.516Z,27.23
2023-01-08T07:12:21.471Z,29.30
2023-01-08T07:14:50.707Z,35.30
2023-01-08T07:17:17.554Z,25.92
2023-01-08T07:19:44.410Z,25.23
2023-01-08T07:22:13.949Z,25.10
2023-01-08T07:24:48.160Z,25.75
2023-01-08T07:27:14.927Z,32.67
2023-01-08T07:29:44.217Z,28.08
2023-01-08T07:32:12.342Z,27.73
2023-01-08T07:34:41.562Z,29.08
2023-01-08T07:37:11.867Z,27.30
2023-01-08T07:39:38.677Z,33.50
2023-01-08T07:42:10.948Z,28.95
2023-01-08T07:44:37.683Z,32.58
2023-01-08T07:47:04.947Z,28.83
2023-01-08T07:49:33.537Z,28.08
2023-01-08T07:52:05.693Z,29.67
2023-01-08T07:54:34.273Z,28.20
2023-01-08T07:57:01.346Z,32.10
2023-01-08T07:59:29.817Z,29.42
2023-01-08T08:01:56.640Z,27.25
2023-01-08T08:04:26.376Z,30.27
2023-01-08T08:06:54.239Z,37.10
2023-01-08T08:09:24.890Z,30.40
2023-01-08T08:11:53.635Z,29.35
2023-01-08T08:14:22.313Z,34.03
2023-01-08T08:16:51.165Z,30.02
2023-01-08T08:22:06.126Z,27.92
2023-01-08T08:24:35.941Z,30.77
2023-01-08T08:27:02.675Z,29.30
2023-01-08T08:29:31.379Z,31.17
2023-01-08T08:31:58.233Z,31.70
2023-01-08T08:34:27.584Z,31.05
2023-01-08T08:36:58.396Z,35.45
2023-01-08T08:39:28.145Z,31.13
2023-01-08T08:41:57.348Z,33.22
2023-01-08T08:44:25.288Z,35.72
2023-01-08T08:46:55.906Z,39.00
2023-01-08T08:49:27.286Z,30.27
2023-01-08T08:51:57.541Z,38.47
2023-01-08T08:54:24.163Z,31.50
2023-01-08T08:56:50.825Z,31.38
2023-01-08T08:59:17.606Z,36.92
2023-01-08T09:01:44.425Z,30.30
2023-01-08T09:04:11.408Z,39.25
2023-01-08T09:06:38.219Z,39.20
2023-01-08T09:09:05.077Z,40.05
2023-01-08T09:11:36.764Z,33.78
2023-01-08T09:14:12.851Z,32.67
2023-01-08T09:16:45.818Z,31.95
2023-01-08T09:19:17.955Z,32.40
2023-01-08T09:21:58.943Z,31.55
2023-01-08T09:24:32.322Z,39.50
2023-01-08T09:26:59.470Z,33.20
2023-01-08T09:29:26.813Z,33.97
2023-01-08T09:32:01.581Z,32.30
2023-01-08T09:34:28.623Z,41.78
2023-01-08T09:36:56.387Z,37.95
2023-01-08T09:39:25.124Z,39.15
2023-01-08T09:41:54.267Z,32.45
2023-01-08T09:44:26.703Z,33.58
2023-01-08T09:49:46.831Z,38.92
2023-01-08T09:54:42.893Z,39.33
2023-01-08T09:57:24.743Z,33.42
2023-01-08T09:59:51.737Z,31.55
2023-01-08T10:02:40.392Z,34.60
2023-01-08T10:05:20.477Z,32.50
2023-01-08T10:07:53.767Z,31.58
2023-01-08T10:10:34.409Z,32.17
2023-01-08T10:13:03.118Z,33.90
2023-01-08T10:15:32.721Z,33.83
2023-01-08T10:18:14.785Z,31.17
2023-01-08T10:20:50.485Z,31.25
2023-01-08T10:23:23.017Z,38.35
2023-01-08T10:28:37.900Z,32.13
2023-01-08T10:31:17.070Z,31.42
2023-01-08T10:33:50.784Z,31.30
2023-01-08T10:36:20.962Z,34.65
2023-01-08T10:38:59.324Z,38.63
2023-01-08T10:41:30.390Z,31.30
2023-01-08T10:44:24.712Z,32.33
2023-01-08T10:47:04.663Z,30.10
2023-01-08T10:49:39.489Z,30.80
2023-01-08T10:52:28.160Z,30.52
2023-01-08T10:55:01.724Z,31.95
2023-01-08T10:57:32.917Z,33.35
2023-01-08T11:00:02.795Z,33.13
2023-01-08T11:02:49.713Z,34.53
2023-01-08T11:05:17.065Z,31.02
2023-01-08T11:07:48.896Z,30.55
2023-01-08T11:10:52.883Z,37.17
2023-01-08T11:13:26.170Z,30.20
2023-01-08T11:16:13.695Z,30.77
2023-01-08T11:18:56.680Z,29.40
2023-01-08T11:21:33.644Z,30.23
2023-01-08T11:24:24.335Z,35.22
2023-01-08T11:27:15.959Z,30.17
2023-01-08T11:29:57.529Z,33.38
2023-01-08T11:32:47.943Z,32.28
2023-01-08T11:35:26.321Z,33.75
2023-01-08T11:38:01.970Z,32.63
2023-01-08T11:40:50.381Z,31.48
2023-01-08T11:43:37.766Z,27.25
2023-01-08T11:46:33.844Z,29.00
2023-01-08T11:49:25.106Z,27.75
2023-01-08T11:52:06.822Z,26.75
2023-01-08T11:55:21.238Z,26.17
2023-01-08T11:58:26.983Z,26.60
2023-01-08T12:01:31.629Z,30.27
2023-01-08T12:04:34.493Z,27.85
2023-01-08T12:07:24.620Z,31.17
2023-01-08T12:10:25.385Z,30.58
2023-01-08T12:13:19.990Z,27.00
2023-01-08T12:15:55.754Z,28.48
2023-01-08T12:18:43.634Z,35.45
2023-01-08T12:21:25.571Z,32.70
2023-01-08T12:24:26.914Z,26.98
2023-01-08T12:27:19.435Z,25.85
2023-01-08T12:29:58.183Z,25.88
2023-01-08T12:32:48.024Z,24.58
2023-01-08T12:35:21.509Z,25.00
2023-01-08T12:38:06.401Z,24.98
2023-01-08T12:40:41.229Z,26.02
2023-01-08T12:43:22.793Z,26.10
2023-01-08T12:45:59.666Z,27.27
2023-01-08T12:48:38.787Z,31.20
2023-01-08T12:51:22.496Z,30.42
2023-01-08T12:53:49.407Z,25.10
2023-01-08T12:56:25.799Z,26.23
2023-01-08T12:59:11.776Z,31.73
2023-01-08T13:02:07.137Z,26.63
2023-01-08T13:04:47.866Z,31.02
2023-01-08T13:07:28.139Z,28.85
2023-01-08T13:10:06.063Z,29.45
2023-01-08T13:12:45.279Z,29.98
2023-01-08T13:15:26.667Z,29.98
2023-01-08T13:18:01.423Z,28.77
2023-01-08T13:20:35.376Z,29.13
2023-01-08T13:23:05.745Z,29.85
2023-01-08T13:25:58.988Z,28.75
2023-01-08T13:28:28.976Z,28.50
2023-01-08T13:31:07.220Z,25.05
2023-01-08T13:33:33.995Z,28.33
2023-01-08T13:36:12.935Z,28.20
2023-01-08T13:39:06.794Z,24.58
2023-01-08T13:41:40.371Z,23.65
2023-01-08T13:44:31.699Z,29.88
2023-01-08T13:47:06.825Z,26.77
2023-01-08T13:49:43.684Z,22.95
2023-01-08T13:52:44.817Z,24.35
2023-01-08T13:55:40.112Z,27.45
2023-01-08T13:58:23.328Z,21.88
2023-01-08T14:00:52.912Z,21.25
2023-01-08T14:03:32.026Z,19.48
2023-01-08T14:06:21.643Z,24.02
2023-01-08T14:09:01.401Z,25.52
2023-01-08T14:11:44.811Z,23.35
2023-01-08T14:14:20.651Z,23.17
2023-01-08T14:16:52.466Z,27.23
2023-01-08T14:19:25.591Z,24.85
2023-01-08T14:21:58.422Z,23.23
2023-01-08T14:24:28.342Z,26.63
2023-01-08T14:26:58.698Z,27.02
2023-01-08T14:29:33.090Z,26.25
2023-01-08T14:32:01.441Z,26.50
2023-01-08T14:34:40.010Z,28.40
2023-01-08T14:37:12.855Z,22.73
2023-01-08T14:39:39.677Z,26.58
2023-01-08T14:42:58.969Z,28.15
2023-01-08T14:45:37.061Z,27.02
2023-01-08T14:48:44.568Z,28.27
2023-01-08T14:51:32.539Z,26.65
2023-01-08T14:54:05.700Z,23.33
2023-01-08T14:56:36.251Z,26.48
2023-01-08T14:59:12.000Z,29.65
2023-01-08T15:01:42.062Z,28.45
2023-01-08T15:04:21.212Z,29.92
2023-01-08T15:06:49.191Z,30.98
2023-01-08T15:09:32.424Z,32.22
2023-01-08T15:12:23.377Z,32.10
2023-01-08T15:14:52.357Z,32.15
2023-01-08T15:17:25.124Z,33.67
2023-01-08T15:20:03.918Z,36.85
2023-01-08T15:22:36.005Z,34.63
2023-01-08T15:25:06.844Z,36.92
2023-01-08T15:27:40.033Z,36.42
2023-01-08T15:30:11.921Z,31.15
2023-01-08T15:32:49.240Z,39.28
2023-01-08T15:35:18.898Z,38.78
2023-01-08T15:37:56.113Z,38.90
2023-01-08T15:40:31.888Z,41.35
2023-01-08T15:43:13.810Z,41.08
2023-01-08T15:45:48.666Z,41.00
2023-01-08T15:48:15.610Z,40.53
2023-01-08T15:50:52.455Z,42.75
2023-01-08T15:53:24.887Z,42.38
2023-01-08T15:55:56.801Z,37.75
2023-01-08T15:58:26.497Z,42.95
2023-01-08T16:00:58.424Z,42.88
2023-01-08T16:03:29.367Z,41.00
2023-01-08T16:06:05.346Z,44.05
2023-01-08T16:08:37.733Z,44.88
2023-01-08T16:11:07.625Z,42.63
2023-01-08T16:13:41.653Z,45.15
2023-01-08T16:16:14.290Z,44.38
2023-01-08T16:21:15.434Z,43.08
2023-01-08T16:23:48.244Z,44.55
2023-01-08T16:26:22.816Z,43.85
2023-01-08T16:28:49.830Z,46.63
2023-01-08T16:31:19.615Z,46.55
2023-01-08T16:33:48.391Z,51.97
2023-01-08T16:36:18.158Z,46.72
2023-01-08T16:38:50.574Z,48.60
2023-01-08T16:41:17.480Z,47.08
2023-01-08T16:43:47.459Z,49.90
2023-01-08T16:46:18.160Z,47.67
2023-01-08T16:48:50.923Z,44.88
2023-01-08T16:51:18.046Z,48.53
2023-01-08T16:53:47.787Z,41.80
2023-01-08T16:56:16.269Z,35.38
2023-01-08T16:58:49.716Z,47.30
2023-01-08T17:01:17.811Z,43.20
2023-01-08T17:03:47.354Z,33.78
2023-01-08T17:06:17.670Z,44.67
2023-01-08T17:08:47.457Z,47.55
2023-01-08T17:11:19.948Z,45.83
2023-01-08T17:16:22.728Z,47.25
2023-01-08T17:18:57.248Z,36.58
2023-01-08T17:21:27.198Z,45.35
2023-01-08T17:23:54.296Z,46.28
2023-01-08T17:26:31.687Z,46.20
2023-01-08T17:29:01.779Z,45.50
2023-01-08T17:31:42.213Z,45.95
2023-01-08T17:34:21.773Z,45.72
2023-01-08T17:36:51.574Z,46.33
2023-01-08T17:39:18.515Z,48.58
2023-01-08T17:42:03.895Z,50.22
2023-01-08T17:44:31.727Z,49.53
2023-01-08T17:47:00.697Z,49.55
2023-01-08T17:49:30.620Z,52.20
2023-01-08T17:52:00.679Z,42.10
2023-01-08T17:54:27.669Z,36.50
2023-01-08T17:56:57.839Z,49.83
2023-01-08T17:59:34.042Z,53.45
2023-01-08T18:02:02.083Z,52.03
2023-01-08T18:04:32.584Z,42.47
2023-01-08T18:07:02.323Z,52.78
2023-01-08T18:09:36.893Z,47.42
2023-01-08T18:12:05.813Z,50.83
2023-01-08T18:14:42.265Z,44.08
2023-01-08T18:17:12.655Z,39.15
2023-01-08T18:19:57.755Z,41.60
2023-01-08T18:22:30.635Z,41.42
2023-01-08T18:24:57.762Z,41.35
2023-01-08T18:27:29.854Z,41.63
2023-01-08T18:29:56.990Z,47.22
2023-01-08T18:32:26.531Z,48.97
2023-01-08T18:34:57.921Z,43.15
2023-01-08T18:37:27.748Z,41.13
2023-01-08T18:39:54.641Z,41.28
2023-01-08T18:42:35.298Z,40.47
2023-01-08T18:45:08.032Z,42.75
2023-01-08T18:47:38.775Z,41.00
2023-01-08T18:50:09.339Z,41.35
2023-01-08T18:52:42.501Z,49.30
2023-01-08T18:55:15.325Z,41.67
2023-01-08T18:57:42.443Z,39.47
2023-01-08T19:00:10.996Z,39.85
2023-01-08T19:02:40.444Z,44.38
2023-01-08T19:05:09.567Z,40.55
2023-01-08T19:07:41.743Z,38.92
2023-01-08T19:10:13.206Z,47.17
2023-01-08T19:12:49.024Z,38.22
2023-01-08T19:15:26.069Z,39.75
2023-01-08T19:17:52.880Z,40.78
2023-01-08T19:23:03.633Z,38.45
2023-01-08T19:25:32.943Z,41.33
2023-01-08T19:28:08.670Z,43.55
2023-01-08T19:30:39.870Z,40.55
2023-01-08T19:33:11.658Z,50.38
2023-01-08T19:35:40.438Z,42.90
2023-01-08T19:38:13.235Z,51.97
2023-01-08T19:40:40.151Z,40.15
2023-01-08T19:43:30.452Z,50.15
2023-01-08T19:45:57.867Z,48.72
2023-01-08T19:48:31.853Z,50.55
2023-01-08T19:51:01.737Z,49.10
2023-01-08T19:53:28.817Z,41.90
2023-01-08T19:56:11.520Z,47.95
2023-01-08T20:01:22.725Z,42.25
2023-01-08T20:03:50.893Z,46.38
2023-01-08T20:06:23.335Z,48.65
2023-01-08T20:11:21.844Z,46.47
2023-01-08T20:14:14.883Z,47.38
2023-01-08T20:16:41.965Z,39.58
2023-01-08T20:19:15.769Z,45.72
2023-01-08T20:21:48.607Z,36.60
2023-01-08T20:24:16.647Z,45.28
2023-01-08T20:26:48.399Z,37.92
2023-01-08T20:29:17.410Z,36.50
2023-01-08T20:31:46.485Z,44.85
2023-01-08T20:34:15.963Z,46.47
2023-01-08T20:36:47.240Z,44.95
2023-01-08T20:39:16.959Z,46.10
2023-01-08T20:41:55.373Z,40.53
2023-01-08T20:44:35.910Z,37.55
2023-01-08T20:49:31.689Z,42.63
2023-01-08T20:52:11.395Z,43.30
2023-01-08T20:54:40.038Z,39.40
2023-01-08T20:57:22.350Z,44.25
2023-01-08T20:59:52.268Z,42.97
2023-01-08T21:02:22.603Z,37.30
2023-01-08T21:04:55.788Z,41.75
2023-01-08T21:07:22.823Z,44.83
2023-01-08T21:09:55.101Z,45.08
2023-01-08T21:12:26.976Z,36.10
2023-01-08T21:14:56.831Z,37.05
2023-01-08T21:17:27.838Z,42.13
2023-01-08T21:20:11.830Z,42.60
2023-01-08T21:22:47.075Z,37.25
2023-01-08T21:25:16.355Z,38.15
2023-01-08T21:27:47.726Z,34.65
2023-01-08T21:30:17.717Z,38.85
2023-01-08T21:32:51.054Z,38.63
2023-01-08T21:35:21.617Z,34.30
2023-01-08T21:37:52.660Z,35.03
2023-01-08T21:40:22.932Z,40.42
2023-01-08T21:43:08.385Z,40.67
2023-01-08T21:45:37.910Z,32.97
2023-01-08T21:48:05.189Z,38.42
2023-01-08T21:50:31.960Z,33.80
2023-01-08T21:56:04.851Z,35.08
2023-01-08T21:58:36.770Z,34.70
2023-01-08T22:01:10.125Z,35.15
2023-01-08T22:03:38.347Z,32.97
2023-01-08T22:06:06.815Z,31.17
2023-01-08T22:08:36.932Z,33.55
2023-01-08T22:11:08.329Z,33.53
2023-01-08T22:13:36.456Z,29.75
2023-01-08T22:16:09.285Z,29.30
2023-01-08T22:18:36.846Z,29.10
2023-01-08T22:21:11.072Z,27.67
2023-01-08T22:23:43.711Z,30.08
2023-01-08T22:26:29.153Z,33.17
2023-01-08T22:29:02.830Z,31.52
2023-01-08T22:31:33.682Z,31.95
2023-01-08T22:34:00.937Z,32.25
2023-01-08T22:36:30.726Z,33.85
2023-01-08T22:38:58.039Z,28.50
2023-01-08T22:41:29.536Z,35.45
2023-01-08T22:44:09.997Z,37.45
2023-01-08T22:46:41.805Z,38.88
2023-01-08T22:49:11.875Z,39.33
2023-01-08T22:51:40.911Z,36.75
2023-01-08T22:54:09.972Z,25.48
2023-01-08T22:56:40.131Z,33.53
2023-01-08T22:59:07.023Z,28.52
2023-01-08T23:01:41.640Z,36.65
2023-01-08T23:04:14.192Z,36.17
2023-01-08T23:09:20.681Z,37.33
2023-01-08T23:11:52.487Z,29.88
2023-01-08T23:14:19.743Z,33.17
2023-01-08T23:16:51.423Z,36.38
2023-01-08T23:19:18.605Z,32.20
2023-01-08T23:21:46.632Z,31.05
2023-01-08T23:24:14.111Z,34.22
2023-01-08T23:26:49.394Z,30.40
2023-01-08T23:29:19.439Z,32.50
2023-01-08T23:31:59.754Z,32.47
2023-01-08T23:34:31.973Z,30.55
2023-01-08T23:36:59.829Z,30.85
2023-01-08T23:39:38.203Z,29.98
2023-01-08T23:42:05.336Z,29.65
2023-01-08T23:44:32.192Z,30.92
2023-01-08T23:46:59.085Z,27.50
2023-01-08T23:49:29.045Z,27.75
2023-01-08T23:51:58.864Z,27.80
2023-01-08T23:54:25.685Z,34.38
2023-01-08T23:56:58.987Z,39.20
2023-01-08T23:59:28.855Z,41.85
